createdAt,value
2022-08-21T00:01:45.665Z,21.26
2022-08-21T00:04:20.058Z,21.24
2022-08-21T00:06:50.131Z,21.54
2022-08-21T00:09:18.370Z,21.58
2022-08-21T00:11:45.547Z,21.48
2022-08-21T00:14:13.559Z,21.14
2022-08-21T00:16:41.013Z,21.37
2022-08-21T00:19:08.359Z,21.39
2022-08-21T00:21:35.651Z,21.53
2022-08-21T00:24:03.153Z,21.21
2022-08-21T00:26:30.470Z,21.17
2022-08-21T00:28:58.420Z,20.89
2022-08-21T00:31:26.554Z,21.19
2022-08-21T00:33:59.345Z,21.08
2022-08-21T00:36:29.019Z,20.96
2022-08-21T00:38:56.494Z,20.73
2022-08-21T00:41:38.339Z,21.06
2022-08-21T00:44:07.258Z,21.15
2022-08-21T00:46:34.431Z,20.90
2022-08-21T00:49:01.599Z,21.35
2022-08-21T00:51:30.308Z,21.07
2022-08-21T00:53:58.983Z,21.17
2022-08-21T00:56:26.668Z,20.94
2022-08-21T00:58:54.953Z,20.59
2022-08-21T01:01:22.449Z,20.84
2022-08-21T01:03:49.991Z,20.83
2022-08-21T01:06:17.658Z,21.10
2022-08-21T01:08:46.848Z,20.98
2022-08-21T01:11:15.590Z,21.17
2022-08-21T01:13:46.895Z,20.82
2022-08-21T01:16:15.040Z,20.80
2022-08-21T01:18:42.481Z,21.19
2022-08-21T01:21:14.201Z,21.06
2022-08-21T01:23:42.392Z,21.16
2022-08-21T01:26:10.293Z,20.87
2022-08-21T01:28:57.815Z,21.18
2022-08-21T01:31:26.523Z,21.00
2022-08-21T01:33:54.317Z,21.14
2022-08-21T01:36:21.505Z,21.28
2022-08-21T01:38:48.961Z,21.07
2022-08-21T01:41:16.491Z,21.11
2022-08-21T01:43:43.889Z,20.89
2022-08-21T01:46:11.421Z,21.00
2022-08-21T01:48:38.645Z,20.96
2022-08-21T01:51:06.041Z,21.20
2022-08-21T01:53:36.531Z,20.89
2022-08-21T01:56:04.586Z,20.63
2022-08-21T01:58:40.432Z,21.07
2022-08-21T02:01:07.802Z,21.06
2022-08-21T02:03:36.292Z,21.02
2022-08-21T02:06:04.963Z,20.80
2022-08-21T02:08:32.190Z,20.80
2022-08-21T02:10:59.736Z,20.40
2022-08-21T02:13:27.220Z,20.84
2022-08-21T02:15:54.407Z,20.51
2022-08-21T02:18:21.848Z,20.65
2022-08-21T02:20:49.446Z,20.49
2022-08-21T02:23:27.044Z,20.54
2022-08-21T02:25:58.713Z,21.14
2022-08-21T02:28:27.619Z,20.54
2022-08-21T02:30:55.285Z,20.78
2022-08-21T02:33:22.794Z,20.75
2022-08-21T02:35:50.870Z,20.96
2022-08-21T02:38:19.334Z,20.15
2022-08-21T02:40:48.345Z,20.36
2022-08-21T02:43:19.094Z,20.30
2022-08-21T02:45:46.597Z,20.53
2022-08-21T02:48:15.977Z,20.58
2022-08-21T02:50:45.291Z,21.00
2022-08-21T02:53:16.309Z,20.54
2022-08-21T02:55:45.016Z,19.96
2022-08-21T02:58:12.196Z,20.38
2022-08-21T03:00:39.612Z,20.33
2022-08-21T03:03:07.331Z,19.94
2022-08-21T03:05:35.315Z,20.12
2022-08-21T03:08:02.924Z,20.23
2022-08-21T03:10:31.970Z,20.61
2022-08-21T03:12:59.302Z,20.69
2022-08-21T03:15:27.389Z,20.22
2022-08-21T03:17:55.554Z,20.37
2022-08-21T03:20:24.784Z,20.53
2022-08-21T03:22:53.183Z,20.35
2022-08-21T03:25:37.483Z,20.69
2022-08-21T03:28:08.683Z,20.55
2022-08-21T03:30:41.618Z,20.53
2022-08-21T03:33:08.804Z,20.99
2022-08-21T03:35:39.703Z,20.21
2022-08-21T03:38:07.214Z,20.58
2022-08-21T03:40:34.381Z,20.78
2022-08-21T03:43:01.566Z,20.59
2022-08-21T03:45:30.086Z,20.64
2022-08-21T03:47:59.690Z,20.65
2022-08-21T03:50:27.734Z,20.68
2022-08-21T03:52:55.613Z,20.88
2022-08-21T03:55:22.909Z,20.47
2022-08-21T03:57:50.069Z,20.36
2022-08-21T04:00:17.966Z,20.79
2022-08-21T04:02:45.415Z,20.47
2022-08-21T04:05:13.215Z,20.23
2022-08-21T04:07:40.457Z,20.30
2022-08-21T04:10:08.211Z,20.45
2022-08-21T04:12:35.385Z,19.97
2022-08-21T04:15:03.031Z,20.08
2022-08-21T04:17:30.535Z,20.31
2022-08-21T04:19:57.702Z,20.00
2022-08-21T04:22:24.877Z,20.63
2022-08-21T04:24:52.312Z,20.82
2022-08-21T04:27:19.469Z,20.58
2022-08-21T04:29:46.661Z,20.88
2022-08-21T04:32:14.067Z,20.83
2022-08-21T04:34:41.276Z,20.83
2022-08-21T04:37:08.473Z,20.84
2022-08-21T04:39:35.941Z,20.87
2022-08-21T04:42:03.122Z,20.81
2022-08-21T04:44:30.386Z,20.89
2022-08-21T04:46:57.802Z,20.80
2022-08-21T04:49:24.988Z,20.50
2022-08-21T04:51:52.197Z,21.18
2022-08-21T04:54:20.594Z,20.61
2022-08-21T04:56:47.846Z,20.19
2022-08-21T04:59:28.192Z,20.49
2022-08-21T05:01:57.573Z,20.08
2022-08-21T05:04:26.230Z,20.37
2022-08-21T05:06:53.943Z,20.56
2022-08-21T05:09:21.449Z,20.36
2022-08-21T05:11:49.806Z,20.23
2022-08-21T05:14:17.073Z,20.66
2022-08-21T05:16:45.015Z,20.78
2022-08-21T05:19:12.409Z,20.35
2022-08-21T05:21:41.752Z,20.65
2022-08-21T05:24:09.289Z,20.86
2022-08-21T05:26:45.466Z,20.90
2022-08-21T05:29:14.742Z,21.00
2022-08-21T05:31:42.172Z,20.90
2022-08-21T05:34:09.317Z,20.82
2022-08-21T05:36:38.056Z,20.55
2022-08-21T05:39:05.233Z,20.34
2022-08-21T05:41:34.202Z,20.63
2022-08-21T05:44:01.978Z,20.71
2022-08-21T05:46:29.299Z,20.95
2022-08-21T05:48:56.517Z,20.52
2022-08-21T05:51:24.328Z,20.40
2022-08-21T05:53:51.482Z,20.60
2022-08-21T05:56:18.746Z,20.57
2022-08-21T05:58:46.216Z,20.95
2022-08-21T06:01:13.460Z,21.10
2022-08-21T06:03:41.319Z,21.28
2022-08-21T06:06:08.563Z,21.06
2022-08-21T06:08:35.763Z,21.31
2022-08-21T06:11:04.125Z,21.26
2022-08-21T06:13:31.306Z,20.74
2022-08-21T06:16:15.773Z,21.02
2022-08-21T06:18:44.072Z,21.14
2022-08-21T06:21:12.499Z,21.03
2022-08-21T06:23:39.737Z,21.17
2022-08-21T06:26:07.448Z,20.63
2022-08-21T06:28:34.896Z,21.01
2022-08-21T06:31:02.312Z,20.90
2022-08-21T06:33:32.704Z,20.63
2022-08-21T06:36:00.919Z,20.61
2022-08-21T06:38:28.119Z,21.31
2022-08-21T06:40:56.394Z,21.64
2022-08-21T06:43:39.219Z,20.84
2022-08-21T06:46:08.748Z,21.16
2022-08-21T06:48:36.095Z,21.38
2022-08-21T06:51:03.601Z,21.91
2022-08-21T06:53:31.153Z,21.83
2022-08-21T06:55:58.314Z,21.47
2022-08-21T06:58:25.505Z,21.42
2022-08-21T07:00:54.021Z,21.53
2022-08-21T07:03:28.340Z,21.44
2022-08-21T07:05:56.058Z,21.99
2022-08-21T07:08:23.262Z,21.70
2022-08-21T07:10:50.441Z,21.79
2022-08-21T07:13:17.910Z,21.31
2022-08-21T07:15:45.779Z,21.51
2022-08-21T07:18:14.105Z,21.23
2022-08-21T07:20:41.600Z,21.62
2022-08-21T07:23:10.322Z,21.71
2022-08-21T07:25:37.496Z,21.81
2022-08-21T07:28:04.955Z,22.19
2022-08-21T07:30:32.354Z,21.97
2022-08-21T07:32:59.798Z,21.74
2022-08-21T07:35:30.033Z,21.26
2022-08-21T07:37:57.590Z,21.40
2022-08-21T07:40:25.276Z,21.61
2022-08-21T07:42:52.836Z,21.53
2022-08-21T07:45:21.342Z,21.55
2022-08-21T07:47:49.852Z,21.79
2022-08-21T07:50:19.913Z,21.86
2022-08-21T07:52:48.274Z,22.27
2022-08-21T07:55:17.010Z,22.70
2022-08-21T07:57:45.352Z,21.72
2022-08-21T08:00:14.202Z,22.37
2022-08-21T08:02:41.618Z,22.62
2022-08-21T08:05:10.262Z,22.67
2022-08-21T08:07:37.724Z,22.97
2022-08-21T08:10:05.633Z,23.15
2022-08-21T08:12:33.040Z,22.94
2022-08-21T08:15:00.762Z,23.27
2022-08-21T08:17:28.130Z,23.22
2022-08-21T08:19:56.366Z,23.63
2022-08-21T08:22:26.795Z,23.32
2022-08-21T08:24:54.121Z,23.83
2022-08-21T08:27:21.783Z,23.78
2022-08-21T08:29:48.940Z,24.13
2022-08-21T08:32:16.177Z,23.87
2022-08-21T08:34:44.223Z,23.66
2022-08-21T08:37:11.987Z,23.52
2022-08-21T08:39:39.754Z,23.40
2022-08-21T08:42:32.988Z,23.16
2022-08-21T08:45:08.067Z,22.89
2022-08-21T08:47:36.490Z,23.70
2022-08-21T08:50:06.124Z,23.65
2022-08-21T08:52:37.384Z,23.98
2022-08-21T08:55:04.945Z,24.41
2022-08-21T08:57:32.209Z,24.44
2022-08-21T09:00:00.554Z,23.64
2022-08-21T09:02:30.230Z,23.89
2022-08-21T09:04:57.578Z,23.86
2022-08-21T09:07:24.808Z,23.85
2022-08-21T09:10:01.074Z,24.26
2022-08-21T09:12:37.011Z,23.24
2022-08-21T09:15:10.853Z,23.27
2022-08-21T09:17:40.909Z,23.93
2022-08-21T09:20:08.318Z,24.09
2022-08-21T09:22:47.662Z,24.21
2022-08-21T09:25:25.931Z,24.35
2022-08-21T09:27:53.096Z,24.17
2022-08-21T09:30:21.021Z,24.21
2022-08-21T09:32:48.178Z,24.54
2022-08-21T09:35:17.775Z,24.19
2022-08-21T09:37:55.587Z,24.32
2022-08-21T09:40:32.006Z,24.21
2022-08-21T09:43:03.851Z,24.22
2022-08-21T09:45:34.077Z,23.81
2022-08-21T09:48:15.491Z,24.44
2022-08-21T09:50:43.265Z,24.62
2022-08-21T09:53:43.384Z,24.02
2022-08-21T09:56:39.756Z,24.58
2022-08-21T09:59:14.477Z,24.23
2022-08-21T10:01:46.927Z,24.52
2022-08-21T10:04:16.019Z,24.83
2022-08-21T10:06:43.175Z,24.07
2022-08-21T10:09:13.663Z,24.15
2022-08-21T10:11:47.224Z,24.43
2022-08-21T10:14:17.316Z,24.88
2022-08-21T10:17:03.913Z,25.40
2022-08-21T10:19:46.523Z,25.51
2022-08-21T10:22:34.180Z,26.09
2022-08-21T10:25:04.483Z,25.62
2022-08-21T10:27:35.821Z,25.15
2022-08-21T10:30:16.522Z,25.45
2022-08-21T10:33:07.189Z,25.91
2022-08-21T10:35:36.519Z,25.90
2022-08-21T10:38:46.221Z,26.44
2022-08-21T10:41:15.918Z,26.27
2022-08-21T10:43:52.344Z,26.09
2022-08-21T10:46:38.771Z,26.35
2022-08-21T10:49:21.721Z,26.36
2022-08-21T10:51:54.867Z,25.89
2022-08-21T10:54:40.962Z,26.26
2022-08-21T10:57:13.252Z,25.74
2022-08-21T10:59:49.240Z,25.97
2022-08-21T11:02:19.191Z,25.76
2022-08-21T11:04:51.869Z,26.71
2022-08-21T11:07:23.972Z,26.14
2022-08-21T11:09:52.239Z,26.43
2022-08-21T11:12:22.124Z,26.55
2022-08-21T11:15:04.220Z,26.77
2022-08-21T11:17:35.481Z,26.31
2022-08-21T11:20:11.490Z,26.44
2022-08-21T11:23:03.049Z,25.97
2022-08-21T11:25:36.975Z,26.33
2022-08-21T11:28:36.797Z,26.58
2022-08-21T11:31:04.211Z,26.44
2022-08-21T11:33:49.487Z,25.93
2022-08-21T11:36:21.318Z,26.33
2022-08-21T11:38:51.892Z,26.18
2022-08-21T11:41:22.344Z,25.14
2022-08-21T11:43:51.705Z,25.37
2022-08-21T11:46:27.919Z,25.87
2022-08-21T11:49:04.365Z,25.02
2022-08-21T11:51:34.199Z,25.44
2022-08-21T11:54:07.209Z,25.41
2022-08-21T11:56:36.542Z,24.87
2022-08-21T11:59:05.955Z,25.76
2022-08-21T12:01:34.968Z,25.07
2022-08-21T12:04:04.419Z,25.42
2022-08-21T12:06:34.617Z,24.75
2022-08-21T12:09:03.788Z,24.82
2022-08-21T12:11:31.306Z,24.93
2022-08-21T12:14:13.076Z,24.87
2022-08-21T12:16:41.575Z,24.60
2022-08-21T12:19:13.299Z,24.71
2022-08-21T12:21:54.425Z,25.00
2022-08-21T12:24:33.465Z,25.60
2022-08-21T12:27:02.847Z,25.13
2022-08-21T12:29:31.032Z,25.01
2022-08-21T12:31:58.178Z,25.26
2022-08-21T12:34:44.587Z,25.23
2022-08-21T12:37:31.225Z,25.47
2022-08-21T12:39:59.335Z,24.80
2022-08-21T12:42:35.223Z,24.65
2022-08-21T12:45:10.908Z,24.33
2022-08-21T12:47:45.201Z,24.89
2022-08-21T12:50:24.545Z,24.97
2022-08-21T12:53:00.979Z,24.65
2022-08-21T12:55:30.918Z,24.95
2022-08-21T12:57:58.098Z,24.50
2022-08-21T13:00:27.533Z,24.79
2022-08-21T13:02:55.603Z,24.92
2022-08-21T13:05:29.393Z,24.90
2022-08-21T13:07:57.725Z,24.90
2022-08-21T13:10:27.015Z,24.32
2022-08-21T13:12:57.888Z,24.60
2022-08-21T13:15:33.308Z,24.08
2022-08-21T13:18:03.525Z,23.49
2022-08-21T13:20:39.001Z,24.23
2022-08-21T13:23:19.857Z,23.92
2022-08-21T13:25:47.287Z,23.19
2022-08-21T13:28:15.900Z,23.61
2022-08-21T13:30:44.592Z,23.57
2022-08-21T13:33:13.373Z,24.19
2022-08-21T13:35:48.262Z,24.11
2022-08-21T13:38:15.998Z,23.22
2022-08-21T13:40:48.372Z,23.46
2022-08-21T13:43:19.955Z,23.41
2022-08-21T13:45:50.028Z,23.64
2022-08-21T13:48:17.461Z,23.75
2022-08-21T13:50:44.661Z,23.83
2022-08-21T13:53:23.093Z,23.86
2022-08-21T13:55:50.843Z,23.95
2022-08-21T13:58:31.367Z,23.93
2022-08-21T14:00:59.344Z,23.82
2022-08-21T14:03:32.818Z,23.81
2022-08-21T14:06:00.451Z,23.92
2022-08-21T14:08:30.237Z,23.69
2022-08-21T14:10:57.767Z,23.69
2022-08-21T14:13:28.414Z,23.73
2022-08-21T14:15:58.014Z,23.66
2022-08-21T14:18:26.927Z,23.49
2022-08-21T14:21:05.208Z,22.99
2022-08-21T14:23:32.762Z,23.94
2022-08-21T14:26:04.166Z,23.29
2022-08-21T14:28:33.217Z,23.53
2022-08-21T14:31:15.099Z,23.63
2022-08-21T14:33:42.386Z,23.42
2022-08-21T14:36:09.857Z,23.64
2022-08-21T14:38:38.031Z,23.60
2022-08-21T14:41:16.919Z,23.58
2022-08-21T14:43:44.980Z,23.82
2022-08-21T14:46:13.000Z,23.68
2022-08-21T14:48:40.165Z,23.71
2022-08-21T14:51:07.585Z,23.42
2022-08-21T14:53:34.769Z,23.37
2022-08-21T14:56:07.978Z,23.24
2022-08-21T14:58:36.531Z,23.64
2022-08-21T15:01:05.088Z,23.24
2022-08-21T15:03:33.417Z,23.59
2022-08-21T15:06:00.849Z,23.12
2022-08-21T15:08:28.027Z,23.63
2022-08-21T15:11:11.124Z,23.63
2022-08-21T15:13:39.920Z,23.28
2022-08-21T15:16:07.154Z,23.46
2022-08-21T15:18:34.377Z,23.40
2022-08-21T15:21:01.807Z,22.97
2022-08-21T15:23:28.960Z,23.02
2022-08-21T15:25:58.428Z,23.43
2022-08-21T15:28:27.239Z,23.51
2022-08-21T15:31:00.375Z,23.39
2022-08-21T15:33:27.900Z,23.54
2022-08-21T15:35:55.060Z,23.13
2022-08-21T15:38:22.238Z,23.65
2022-08-21T15:40:51.997Z,23.65
2022-08-21T15:43:22.820Z,23.44
2022-08-21T15:46:00.892Z,23.35
2022-08-21T15:48:28.543Z,23.39
2022-08-21T15:50:55.737Z,23.26
2022-08-21T15:53:23.283Z,23.14
2022-08-21T15:55:50.437Z,22.90
2022-08-21T15:58:17.870Z,22.65
2022-08-21T16:00:45.695Z,22.80
2022-08-21T16:03:15.964Z,22.98
2022-08-21T16:05:43.797Z,22.89
2022-08-21T16:08:11.853Z,22.67
2022-08-21T16:10:39.462Z,23.19
2022-08-21T16:13:07.977Z,23.20
2022-08-21T16:15:35.125Z,23.24
2022-08-21T16:18:02.576Z,23.23
2022-08-21T16:20:29.922Z,23.22
2022-08-21T16:22:57.731Z,22.75
2022-08-21T16:28:12.993Z,22.89
2022-08-21T16:30:41.494Z,22.49
2022-08-21T16:33:08.719Z,22.62
2022-08-21T16:35:35.898Z,22.84
2022-08-21T16:38:03.491Z,22.55
2022-08-21T16:40:30.705Z,22.88
2022-08-21T16:42:58.080Z,22.81
2022-08-21T16:45:27.855Z,23.10
2022-08-21T16:47:58.344Z,23.08
2022-08-21T16:50:25.819Z,23.05
2022-08-21T16:52:53.142Z,22.84
2022-08-21T16:55:20.327Z,22.83
2022-08-21T16:57:47.758Z,22.39
2022-08-21T17:00:15.752Z,22.57
2022-08-21T17:02:45.083Z,22.80
2022-08-21T17:05:14.186Z,22.48
2022-08-21T17:07:42.485Z,22.48
2022-08-21T17:10:10.865Z,22.71
2022-08-21T17:12:38.414Z,22.54
2022-08-21T17:15:07.579Z,22.20
2022-08-21T17:17:34.976Z,22.71
2022-08-21T17:20:02.414Z,22.45
2022-08-21T17:22:29.590Z,22.36
2022-08-21T17:24:56.826Z,22.57
2022-08-21T17:27:26.815Z,22.55
2022-08-21T17:29:54.678Z,22.49
2022-08-21T17:32:22.107Z,22.46
2022-08-21T17:34:49.558Z,22.50
2022-08-21T17:37:16.737Z,22.34
2022-08-21T17:39:44.023Z,22.18
2022-08-21T17:42:11.980Z,22.45
2022-08-21T17:44:40.449Z,22.72
2022-08-21T17:47:07.812Z,22.61
2022-08-21T17:49:35.314Z,22.30
2022-08-21T17:52:02.613Z,22.66
2022-08-21T17:54:29.780Z,22.52
2022-08-21T17:56:57.229Z,22.57
2022-08-21T17:59:24.432Z,22.68
2022-08-21T18:01:52.296Z,22.24
2022-08-21T18:04:21.774Z,22.42
2022-08-21T18:06:48.984Z,22.30
2022-08-21T18:09:16.147Z,22.01
2022-08-21T18:11:43.871Z,22.29
2022-08-21T18:14:11.110Z,22.38
2022-08-21T18:16:38.442Z,22.36
2022-08-21T18:19:09.544Z,22.48
2022-08-21T18:21:36.719Z,22.37
2022-08-21T18:24:04.139Z,22.26
2022-08-21T18:26:34.733Z,22.16
2022-08-21T18:29:02.304Z,22.19
2022-08-21T18:31:30.517Z,21.79
2022-08-21T18:34:01.510Z,22.36
2022-08-21T18:36:29.527Z,22.18
2022-08-21T18:39:13.546Z,22.46
2022-08-21T18:41:46.354Z,22.33
2022-08-21T18:44:14.377Z,21.28
2022-08-21T18:46:42.111Z,20.80
2022-08-21T18:49:10.927Z,21.69
2022-08-21T18:51:45.134Z,22.22
2022-08-21T18:54:13.206Z,22.12
2022-08-21T18:56:42.557Z,21.66
2022-08-21T18:59:11.951Z,21.78
2022-08-21T19:01:43.660Z,21.94
2022-08-21T19:04:41.132Z,22.14
2022-08-21T19:07:06.004Z,21.80
2022-08-21T19:09:37.748Z,21.80
2022-08-21T19:12:14.480Z,21.68
2022-08-21T19:14:45.656Z,21.53
2022-08-21T19:17:13.907Z,21.53
2022-08-21T19:19:42.926Z,21.56
2022-08-21T19:22:11.215Z,21.69
2022-08-21T19:24:40.879Z,21.77
2022-08-21T19:27:17.706Z,21.90
2022-08-21T19:29:45.769Z,21.37
2022-08-21T19:32:15.273Z,21.60
2022-08-21T19:34:46.879Z,21.73
2022-08-21T19:37:16.608Z,21.17
2022-08-21T19:39:49.984Z,21.15
2022-08-21T19:42:21.708Z,20.82
2022-08-21T19:44:51.925Z,21.25
2022-08-21T19:47:29.301Z,21.36
2022-08-21T19:49:58.513Z,21.06
2022-08-21T19:52:26.499Z,20.84
2022-08-21T19:54:54.104Z,20.98
2022-08-21T19:57:21.660Z,21.48
2022-08-21T19:59:49.811Z,21.47
2022-08-21T20:02:20.277Z,21.08
2022-08-21T20:04:54.010Z,21.52
2022-08-21T20:07:26.452Z,21.38
2022-08-21T20:09:56.501Z,21.72
2022-08-21T20:12:25.634Z,21.41
2022-08-21T20:14:54.568Z,21.84
2022-08-21T20:17:21.982Z,21.09
2022-08-21T20:19:54.413Z,21.30
2022-08-21T20:22:24.472Z,21.20
2022-08-21T20:24:53.791Z,21.33
2022-08-21T20:27:24.338Z,21.09
2022-08-21T20:29:51.658Z,21.25
2022-08-21T20:32:19.010Z,21.08
2022-08-21T20:34:52.185Z,21.14
2022-08-21T20:37:37.583Z,21.22
2022-08-21T20:40:10.869Z,21.13
2022-08-21T20:42:39.140Z,21.30
2022-08-21T20:45:08.401Z,21.20
2022-08-21T20:47:36.077Z,20.90
2022-08-21T20:50:09.150Z,21.06
2022-08-21T20:52:40.583Z,21.04
2022-08-21T20:55:10.111Z,21.04
2022-08-21T20:57:43.549Z,20.90
2022-08-21T21:00:14.588Z,20.79
2022-08-21T21:02:44.977Z,20.83
2022-08-21T21:05:22.751Z,21.03
2022-08-21T21:08:05.852Z,21.06
2022-08-21T21:10:54.370Z,21.05
2022-08-21T21:13:24.551Z,20.33
2022-08-21T21:15:53.619Z,20.53
2022-08-21T21:18:26.090Z,20.35
2022-08-21T21:21:08.465Z,20.73
2022-08-21T21:23:44.504Z,20.40
2022-08-21T21:26:14.492Z,20.61
2022-08-21T21:28:47.200Z,20.83
2022-08-21T21:31:14.671Z,20.52
2022-08-21T21:33:42.766Z,20.56
2022-08-21T21:36:10.427Z,20.72
2022-08-21T21:38:51.795Z,20.84
2022-08-21T21:41:25.158Z,20.93
2022-08-21T21:43:52.746Z,20.68
2022-08-21T21:46:24.667Z,20.66
2022-08-21T21:49:14.946Z,20.85
2022-08-21T21:51:42.385Z,20.42
2022-08-21T21:54:09.702Z,20.31
2022-08-21T21:56:40.404Z,20.45
2022-08-21T21:59:29.694Z,20.77
2022-08-21T22:01:57.100Z,20.26
2022-08-21T22:04:28.543Z,20.87
2022-08-21T22:07:18.389Z,20.76
2022-08-21T22:09:50.495Z,20.31
2022-08-21T22:12:32.869Z,20.29
2022-08-21T22:15:00.359Z,20.28
2022-08-21T22:17:32.250Z,20.28
2022-08-21T22:20:00.920Z,20.40
2022-08-21T22:22:28.997Z,20.41
2022-08-21T22:25:05.867Z,20.79
2022-08-21T22:27:35.310Z,20.73
2022-08-21T22:30:04.149Z,20.55
2022-08-21T22:32:40.198Z,20.58
2022-08-21T22:35:21.142Z,20.23
2022-08-21T22:37:49.729Z,20.60
2022-08-21T22:40:35.991Z,20.65
2022-08-21T22:43:07.221Z,20.33
2022-08-21T22:45:51.493Z,20.21
2022-08-21T22:48:22.649Z,20.37
2022-08-21T22:51:20.133Z,20.34
2022-08-21T22:53:47.298Z,20.54
2022-08-21T22:56:26.965Z,20.12
2022-08-21T22:58:57.157Z,19.86
2022-08-21T23:01:24.617Z,20.33
2022-08-21T23:03:57.689Z,20.16
2022-08-21T23:06:33.080Z,20.19
2022-08-21T23:09:00.548Z,20.28
2022-08-21T23:11:38.006Z,20.46
2022-08-21T23:14:05.489Z,20.17
2022-08-21T23:16:52.598Z,20.45
2022-08-21T23:19:23.378Z,20.28
2022-08-21T23:21:59.900Z,19.99
2022-08-21T23:24:33.656Z,20.36
2022-08-21T23:27:07.900Z,20.15
2022-08-21T23:29:36.313Z,19.99
2022-08-21T23:32:25.112Z,19.78
2022-08-21T23:35:08.539Z,20.04
2022-08-21T23:37:51.441Z,19.81
2022-08-21T23:40:22.266Z,19.93
2022-08-21T23:43:03.272Z,20.07
2022-08-21T23:45:39.141Z,19.94
2022-08-21T23:48:29.402Z,20.35
2022-08-21T23:51:09.050Z,19.97
2022-08-21T23:53:55.910Z,20.04
2022-08-21T23:56:23.021Z,20.22
2022-08-21T23:59:03.483Z,20.17
